Pagrindinis puslapis
METAR-TAF:

METAR-TAF

Oro uostai :

Pemba, Mozambikas

platuma: 12-59S, ilguma: 040-32E, Aukštis: 101 m

Dabartinis oras

Ataskaita buvo paskelbta 37 minutes, ne 01:00 UTC
Vėjas 5 kt iš Pietų/Pietvakarių
Temperatūra 26°C
Drėgmė 89%
Slėgis 1011 hPa
Matomumas 10 km arba daugiau
Mažai debesys ne aukštis 2000 ft

METAR: FQPB 010100Z 21005KT 9999 FEW020 26/24 Q1011

Laikas: 03:37 (01:37 UTC)

Prognozė

Ataskaita buvo paskelbta 3 valandos ir 37 minutes, ne 22:00 UTC
Prognozė galioja nuo 01 metu 00 UTC su 01 metu 24 UTC
Vėjas 8 kt iš Vakarų/Pietvakarių
Matomumas 10 km arba daugiau
Išsisklaidę debesys ne aukštis 2000 ft
Tapsmas
nuo 01 metu 08 UTC su 01 metu 10 UTC
Vėjas 8 kt iš Pietų/Pietryčių
Tapsmas
nuo 01 metu 13 UTC su 01 metu 15 UTC
Vėjas 12 kt iš Rytų

TAF: FQPB 312200Z 0100/0124 25008KT 9999 SCT020 TX33/0113Z TN22/0103Z BECMG 0108/0110 16008KT BECMG 0113/0115 09012KT

Orai ataskaitas ir orų prognozės (METAR, TAF).

turimą stotys yra geltonos ir raudonos taškus žemėlapyje.

Perkelti pele per norėdami pamatyti stoties vardą.

Tada spustelėkite, norėdami matyti oro stebėjimo ir prognozės.

Norėdami pakeisti žemėlapį: spustelėkite ant žalios mygtukų su juodo kryžiaus žemyn,; žalią mygtuką su brūkšneliu, jei norite nutolinti; arba žalių rodyklių gretimoms žemėlapius.


METAR-TAF: